createdAt,value
2019-03-03T00:01:43.319Z,9.78
2019-03-03T00:03:47.520Z,8.70
2019-03-03T00:05:52.667Z,8.93
2019-03-03T00:07:56.959Z,8.78
2019-03-03T00:10:01.085Z,8.95
2019-03-03T00:12:05.285Z,9.08
2019-03-03T00:14:09.510Z,8.68
2019-03-03T00:16:13.333Z,8.85
2019-03-03T00:18:17.537Z,8.93
2019-03-03T00:20:23.065Z,9.43
2019-03-03T00:22:28.573Z,8.18
2019-03-03T00:24:35.294Z,8.13
2019-03-03T00:26:39.495Z,8.13
2019-03-03T00:28:43.309Z,8.30
2019-03-03T00:30:47.517Z,8.60
2019-03-03T00:32:51.329Z,7.83
2019-03-03T00:34:55.531Z,8.48
2019-03-03T00:37:01.384Z,8.20
2019-03-03T00:39:08.345Z,7.60
2019-03-03T00:41:13.844Z,8.55
2019-03-03T00:43:34.526Z,8.60
2019-03-03T00:45:45.998Z,8.85
2019-03-03T00:47:57.460Z,9.00
2019-03-03T00:50:03.211Z,9.78
2019-03-03T00:52:11.731Z,8.70
2019-03-03T00:54:32.199Z,8.35
2019-03-03T00:56:43.626Z,9.10
2019-03-03T00:58:52.317Z,8.68
2019-03-03T01:00:58.179Z,8.43
2019-03-03T01:03:03.787Z,9.23
2019-03-03T01:05:10.383Z,9.88
2019-03-03T01:07:31.603Z,9.38
2019-03-03T01:09:48.863Z,9.08
2019-03-03T01:11:56.389Z,9.48
2019-03-03T01:14:04.801Z,9.35
2019-03-03T01:16:13.136Z,9.45
2019-03-03T01:18:21.632Z,9.28
2019-03-03T01:20:30.240Z,9.83
2019-03-03T01:22:36.094Z,10.53
2019-03-03T01:24:41.841Z,10.65
2019-03-03T01:26:45.663Z,8.78
2019-03-03T01:28:49.864Z,8.95
2019-03-03T01:30:54.006Z,8.95
2019-03-03T01:32:58.203Z,9.05
2019-03-03T01:35:02.027Z,9.05
2019-03-03T01:37:06.293Z,9.15
2019-03-03T01:39:11.028Z,8.63
2019-03-03T01:41:15.128Z,8.55
2019-03-03T01:43:18.984Z,8.53
2019-03-03T01:45:23.155Z,8.05
2019-03-03T01:47:28.607Z,7.58
2019-03-03T01:49:32.697Z,8.43
2019-03-03T01:51:36.833Z,8.58
2019-03-03T01:53:41.034Z,8.30
2019-03-03T01:55:45.243Z,7.87
2019-03-03T01:57:49.355Z,8.00
2019-03-03T01:59:53.564Z,9.63
2019-03-03T02:01:57.823Z,8.55
2019-03-03T02:04:01.901Z,8.08
2019-03-03T02:06:06.817Z,7.40
2019-03-03T02:08:11.042Z,7.92
2019-03-03T02:10:16.871Z,8.05
2019-03-03T02:12:21.093Z,7.22
2019-03-03T02:14:25.383Z,8.63
2019-03-03T02:16:29.615Z,8.53
2019-03-03T02:18:33.751Z,8.05
2019-03-03T02:20:37.935Z,8.40
2019-03-03T02:22:41.946Z,7.90
2019-03-03T02:24:49.535Z,9.33
2019-03-03T02:26:55.022Z,9.18
2019-03-03T02:28:58.793Z,9.15
2019-03-03T02:31:02.634Z,8.65
2019-03-03T02:33:08.858Z,8.93
2019-03-03T02:35:13.054Z,9.10
2019-03-03T02:37:18.790Z,9.45
2019-03-03T02:39:22.916Z,9.08
2019-03-03T02:41:27.138Z,9.20
2019-03-03T02:43:34.307Z,9.48
2019-03-03T02:45:38.554Z,10.15
2019-03-03T02:47:42.847Z,9.55
2019-03-03T02:49:47.058Z,10.58
2019-03-03T02:51:51.267Z,8.65
2019-03-03T02:53:55.372Z,9.55
2019-03-03T02:55:59.584Z,9.00
2019-03-03T02:58:03.479Z,10.55
2019-03-03T03:00:10.629Z,9.88
2019-03-03T03:02:18.773Z,10.08
2019-03-03T03:04:23.194Z,9.90
2019-03-03T03:06:31.937Z,9.60
2019-03-03T03:08:37.394Z,10.20
2019-03-03T03:10:48.564Z,10.60
2019-03-03T03:13:03.008Z,11.03
2019-03-03T03:15:21.946Z,9.75
2019-03-03T03:17:36.810Z,10.32
2019-03-03T03:19:45.528Z,10.75
2019-03-03T03:21:57.120Z,12.68
2019-03-03T03:24:02.964Z,12.28
2019-03-03T03:26:09.978Z,10.55
2019-03-03T03:28:15.800Z,10.80
2019-03-03T03:30:33.268Z,9.75
2019-03-03T03:32:42.036Z,10.82
2019-03-03T03:34:51.660Z,11.05
2019-03-03T03:37:00.106Z,10.38
2019-03-03T03:39:19.090Z,10.70
2019-03-03T03:41:27.359Z,11.08
2019-03-03T03:43:33.213Z,11.35
2019-03-03T03:45:39.058Z,11.00
2019-03-03T03:47:50.337Z,10.93
2019-03-03T03:49:56.186Z,10.63
2019-03-03T03:52:07.440Z,10.70
2019-03-03T03:54:22.218Z,11.08
2019-03-03T03:56:34.335Z,10.45
2019-03-03T03:58:45.286Z,10.13
2019-03-03T04:01:03.159Z,10.20
2019-03-03T04:03:23.717Z,11.22
2019-03-03T04:05:38.778Z,10.53
2019-03-03T04:07:44.402Z,10.95
2019-03-03T04:10:01.844Z,11.25
2019-03-03T04:12:22.557Z,11.05
2019-03-03T04:14:28.404Z,10.82
2019-03-03T04:16:45.594Z,11.22
2019-03-03T04:18:53.824Z,10.50
2019-03-03T04:20:59.576Z,9.75
2019-03-03T04:23:21.196Z,9.95
2019-03-03T04:25:27.059Z,9.45
2019-03-03T04:27:38.859Z,9.18
2019-03-03T04:29:44.700Z,10.10
2019-03-03T04:31:53.628Z,9.10
2019-03-03T04:33:59.086Z,9.05
2019-03-03T04:36:04.561Z,9.73
2019-03-03T04:38:16.392Z,8.53
2019-03-03T04:40:37.226Z,8.98
2019-03-03T04:42:48.974Z,9.20
2019-03-03T04:45:03.217Z,9.30
2019-03-03T04:47:08.976Z,9.83
2019-03-03T04:49:31.126Z,9.03
2019-03-03T04:51:53.042Z,8.58
2019-03-03T04:53:58.787Z,10.70
2019-03-03T04:56:13.234Z,9.70
2019-03-03T04:58:35.464Z,9.33
2019-03-03T05:00:53.226Z,9.60
2019-03-03T05:02:59.046Z,9.73
2019-03-03T05:05:04.899Z,9.10
2019-03-03T05:07:13.728Z,9.13
2019-03-03T05:09:39.374Z,10.40
2019-03-03T05:12:04.952Z,9.20
2019-03-03T05:14:13.468Z,9.43
2019-03-03T05:16:18.949Z,9.85
2019-03-03T05:18:25.359Z,8.95
2019-03-03T05:20:31.012Z,10.10
2019-03-03T05:22:34.842Z,9.25
2019-03-03T05:24:38.675Z,9.53
2019-03-03T05:26:42.828Z,9.20
2019-03-03T05:28:46.676Z,9.28
2019-03-03T05:30:50.889Z,9.98
2019-03-03T05:32:54.978Z,8.95
2019-03-03T05:34:59.397Z,9.40
2019-03-03T05:37:03.495Z,8.85
2019-03-03T05:39:07.608Z,8.73
2019-03-03T05:41:11.817Z,9.13
2019-03-03T05:43:15.948Z,8.85
2019-03-03T05:45:20.032Z,8.23
2019-03-03T05:47:23.877Z,8.10
2019-03-03T05:49:30.711Z,8.45
2019-03-03T05:51:34.821Z,7.40
2019-03-03T05:53:38.687Z,8.25
2019-03-03T05:55:44.674Z,7.92
2019-03-03T05:57:48.889Z,7.97
2019-03-03T05:59:57.083Z,7.55
2019-03-03T06:02:00.914Z,6.83
2019-03-03T06:04:05.001Z,7.22
2019-03-03T06:06:09.428Z,7.55
2019-03-03T06:08:13.244Z,7.65
2019-03-03T06:10:17.960Z,7.12
2019-03-03T06:12:22.164Z,7.10
2019-03-03T06:14:26.305Z,7.15
2019-03-03T06:16:31.020Z,6.92
2019-03-03T06:18:35.106Z,7.08
2019-03-03T06:20:39.223Z,7.22
2019-03-03T06:22:43.364Z,8.00
2019-03-03T06:24:47.538Z,7.17
2019-03-03T06:26:51.660Z,6.35
2019-03-03T06:28:55.876Z,6.28
2019-03-03T06:31:00.089Z,6.42
2019-03-03T06:33:04.303Z,7.62
2019-03-03T06:35:10.231Z,7.50
2019-03-03T06:37:14.356Z,7.55
2019-03-03T06:39:18.595Z,6.72
2019-03-03T06:41:22.414Z,7.03
2019-03-03T06:43:26.231Z,7.30
2019-03-03T06:45:30.072Z,7.75
2019-03-03T06:47:34.726Z,8.10
2019-03-03T06:49:38.556Z,7.58
2019-03-03T06:51:42.722Z,7.60
2019-03-03T06:53:46.834Z,7.03
2019-03-03T06:55:50.943Z,7.53
2019-03-03T06:57:55.151Z,7.08
2019-03-03T06:59:58.973Z,8.28
2019-03-03T07:02:03.064Z,7.80
2019-03-03T07:04:07.270Z,7.58
2019-03-03T07:06:11.392Z,8.20
2019-03-03T07:08:15.491Z,8.88
2019-03-03T07:10:19.330Z,7.17
2019-03-03T07:12:23.512Z,6.17
2019-03-03T07:14:27.733Z,7.35
2019-03-03T07:16:33.382Z,7.40
2019-03-03T07:18:37.493Z,7.10
2019-03-03T07:20:41.694Z,7.00
2019-03-03T07:22:45.546Z,7.33
2019-03-03T07:24:49.707Z,6.75
2019-03-03T07:26:53.873Z,6.10
2019-03-03T07:28:58.070Z,6.35
2019-03-03T07:31:02.145Z,6.22
2019-03-03T07:33:08.010Z,6.05
2019-03-03T07:35:12.099Z,5.85
2019-03-03T07:37:15.938Z,6.75
2019-03-03T07:39:20.134Z,6.15
2019-03-03T07:41:23.954Z,6.00
2019-03-03T07:43:27.785Z,6.28
2019-03-03T07:45:31.944Z,12.88
2019-03-03T07:47:35.771Z,7.72
2019-03-03T07:49:39.618Z,14.15
2019-03-03T07:51:43.464Z,12.65
2019-03-03T07:53:47.287Z,7.12
2019-03-03T07:55:51.472Z,6.87
2019-03-03T07:57:55.682Z,6.60
2019-03-03T07:59:59.792Z,9.83
2019-03-03T08:02:03.907Z,7.80
2019-03-03T08:04:08.147Z,6.55
2019-03-03T08:06:12.320Z,7.40
2019-03-03T08:08:16.425Z,6.45
2019-03-03T08:10:20.286Z,6.12
2019-03-03T08:12:24.186Z,6.28
2019-03-03T08:14:28.004Z,6.70
2019-03-03T08:16:32.269Z,5.97
2019-03-03T08:18:37.905Z,5.83
2019-03-03T08:20:42.119Z,5.58
2019-03-03T08:22:46.339Z,5.72
2019-03-03T08:24:51.414Z,6.60
2019-03-03T08:26:55.235Z,6.03
2019-03-03T08:28:59.075Z,6.05
2019-03-03T08:31:02.888Z,6.00
2019-03-03T08:33:07.103Z,5.15
2019-03-03T08:35:19.130Z,9.10
2019-03-03T08:37:22.947Z,6.70
2019-03-03T08:39:27.097Z,5.45
2019-03-03T08:41:32.237Z,6.43
2019-03-03T08:43:37.698Z,6.00
2019-03-03T08:45:48.910Z,5.62
2019-03-03T08:48:03.825Z,6.33
2019-03-03T08:50:16.729Z,6.65
2019-03-03T08:52:25.148Z,5.13
2019-03-03T08:54:30.316Z,5.60
2019-03-03T08:56:41.445Z,5.33
2019-03-03T08:58:46.997Z,6.30
2019-03-03T09:00:54.967Z,5.67
2019-03-03T09:03:12.425Z,5.53
2019-03-03T09:05:21.411Z,5.20
2019-03-03T09:07:26.898Z,5.40
2019-03-03T09:09:38.368Z,5.30
2019-03-03T09:11:44.129Z,7.70
2019-03-03T09:13:49.857Z,5.00
2019-03-03T09:16:11.691Z,5.67
2019-03-03T09:18:28.903Z,4.60
2019-03-03T09:20:47.159Z,8.67
2019-03-03T09:22:52.355Z,5.17
2019-03-03T09:25:00.503Z,4.97
2019-03-03T09:27:06.353Z,4.90
2019-03-03T09:29:27.243Z,4.83
2019-03-03T09:31:38.525Z,5.83
2019-03-03T09:33:58.915Z,4.13
2019-03-03T09:36:07.123Z,5.37
2019-03-03T09:38:25.369Z,4.33
2019-03-03T09:40:42.492Z,5.20
2019-03-03T09:42:47.677Z,4.57
2019-03-03T09:44:59.006Z,5.97
2019-03-03T09:47:07.528Z,4.20
2019-03-03T09:49:13.065Z,4.17
2019-03-03T09:51:18.224Z,3.90
2019-03-03T09:53:23.736Z,5.37
2019-03-03T09:55:31.969Z,4.07
2019-03-03T09:57:43.325Z,4.93
2019-03-03T09:59:54.234Z,3.87
2019-03-03T10:02:15.656Z,4.63
2019-03-03T10:04:21.270Z,5.50
2019-03-03T10:06:32.746Z,6.20
2019-03-03T10:08:54.657Z,14.73
2019-03-03T10:11:05.847Z,4.57
2019-03-03T10:13:14.139Z,4.00
2019-03-03T10:15:25.617Z,4.90
2019-03-03T10:17:36.659Z,4.20
2019-03-03T10:19:45.227Z,4.20
2019-03-03T10:22:00.748Z,3.77
2019-03-03T10:24:05.997Z,3.93
2019-03-03T10:26:29.446Z,3.90
2019-03-03T10:28:34.950Z,4.13
2019-03-03T10:30:40.478Z,3.97
2019-03-03T10:32:46.033Z,3.67
2019-03-03T10:34:54.327Z,3.47
2019-03-03T10:37:05.615Z,4.23
2019-03-03T10:39:14.552Z,3.90
2019-03-03T10:41:36.291Z,3.97
2019-03-03T10:43:44.318Z,4.13
2019-03-03T10:45:52.567Z,4.97
2019-03-03T10:47:58.102Z,4.97
2019-03-03T10:50:12.453Z,4.20
2019-03-03T10:52:27.005Z,5.03
2019-03-03T10:54:44.466Z,3.67
2019-03-03T10:56:52.953Z,7.63
2019-03-03T10:59:08.849Z,5.53
2019-03-03T11:01:16.811Z,3.63
2019-03-03T11:03:38.597Z,5.60
2019-03-03T11:05:52.739Z,4.07
2019-03-03T11:08:00.722Z,5.33
2019-03-03T11:10:12.906Z,5.17
2019-03-03T11:12:21.327Z,12.00
2019-03-03T11:14:42.014Z,3.70
2019-03-03T11:16:59.769Z,6.23
2019-03-03T11:19:11.333Z,6.40
2019-03-03T11:21:28.221Z,6.50
2019-03-03T11:23:42.589Z,6.97
2019-03-03T11:26:00.122Z,3.10
2019-03-03T11:28:08.443Z,4.67
2019-03-03T11:30:34.053Z,4.60
2019-03-03T11:32:55.554Z,6.93
2019-03-03T11:35:16.777Z,3.90
2019-03-03T11:37:38.075Z,5.60
2019-03-03T11:39:43.631Z,3.30
2019-03-03T11:42:00.347Z,3.77
2019-03-03T11:44:05.566Z,4.50
2019-03-03T11:46:11.122Z,3.43
2019-03-03T11:48:22.295Z,3.57
2019-03-03T11:50:27.464Z,3.57
2019-03-03T11:52:32.973Z,3.17
2019-03-03T11:54:38.514Z,2.93
2019-03-03T11:56:46.721Z,3.97
2019-03-03T11:58:54.667Z,3.90
2019-03-03T12:01:06.097Z,3.80
2019-03-03T12:03:12.566Z,3.10
2019-03-03T12:05:20.820Z,3.73
2019-03-03T12:07:44.450Z,2.97
2019-03-03T12:09:52.247Z,3.00
2019-03-03T12:12:14.077Z,3.43
2019-03-03T12:14:19.601Z,2.80
2019-03-03T12:16:30.581Z,3.30
2019-03-03T12:18:36.131Z,3.83
2019-03-03T12:20:41.702Z,3.73
2019-03-03T12:22:49.577Z,3.73
2019-03-03T12:25:04.033Z,3.17
2019-03-03T12:27:15.198Z,2.83
2019-03-03T12:29:29.269Z,3.00
2019-03-03T12:31:34.784Z,3.03
2019-03-03T12:33:46.054Z,3.40
2019-03-03T12:36:07.779Z,3.97
2019-03-03T12:38:25.185Z,3.67
2019-03-03T12:40:36.479Z,3.67
2019-03-03T12:42:47.840Z,3.10
2019-03-03T12:44:53.004Z,3.53
2019-03-03T12:46:58.549Z,3.20
2019-03-03T12:49:04.090Z,3.73
2019-03-03T12:51:21.326Z,3.27
2019-03-03T12:53:29.295Z,3.80
2019-03-03T12:55:34.740Z,3.30
2019-03-03T12:57:40.290Z,4.00
2019-03-03T12:59:45.451Z,3.23
2019-03-03T13:01:53.438Z,2.93
2019-03-03T13:04:15.052Z,2.90
2019-03-03T13:06:30.419Z,3.40
2019-03-03T13:08:35.962Z,4.20
2019-03-03T13:10:41.509Z,3.20
2019-03-03T13:12:52.989Z,3.30
2019-03-03T13:15:00.918Z,4.00
2019-03-03T13:17:15.238Z,3.10
2019-03-03T13:19:32.866Z,2.83
2019-03-03T13:21:40.740Z,2.90
2019-03-03T13:23:51.845Z,3.07
2019-03-03T13:26:02.815Z,3.03
2019-03-03T13:28:08.346Z,4.13
2019-03-03T13:30:21.115Z,3.80
2019-03-03T13:32:35.543Z,3.03
2019-03-03T13:34:40.737Z,2.83
2019-03-03T13:36:51.719Z,3.00
2019-03-03T13:39:03.301Z,3.07
2019-03-03T13:41:14.482Z,3.33
2019-03-03T13:43:18.383Z,3.07
2019-03-03T13:45:22.296Z,3.17
2019-03-03T13:47:26.210Z,2.80
2019-03-03T13:49:30.207Z,2.83
2019-03-03T13:51:34.021Z,3.63
2019-03-03T13:53:37.929Z,3.33
2019-03-03T13:55:41.823Z,2.57
2019-03-03T13:57:45.411Z,3.67
2019-03-03T13:59:49.334Z,3.20
2019-03-03T14:01:53.244Z,3.10
2019-03-03T14:03:57.166Z,2.90
2019-03-03T14:06:00.802Z,2.50
2019-03-03T14:08:04.753Z,2.90
2019-03-03T14:10:10.492Z,3.27
2019-03-03T14:12:14.408Z,3.20
2019-03-03T14:14:18.309Z,2.57
2019-03-03T14:16:23.658Z,2.77
2019-03-03T14:18:27.643Z,3.00
2019-03-03T14:20:31.565Z,3.00
2019-03-03T14:22:35.462Z,3.13
2019-03-03T14:24:41.973Z,3.03
2019-03-03T14:26:45.466Z,2.97
2019-03-03T14:28:48.999Z,2.60
2019-03-03T14:30:52.830Z,2.70
2019-03-03T14:32:56.924Z,3.10
2019-03-03T14:35:00.454Z,3.23
2019-03-03T14:37:04.326Z,2.67
2019-03-03T14:39:08.929Z,2.63
2019-03-03T14:41:12.752Z,3.13
2019-03-03T14:43:16.568Z,3.63
2019-03-03T14:45:20.592Z,2.97
2019-03-03T14:47:24.492Z,5.53
2019-03-03T14:49:28.289Z,15.13
2019-03-03T14:51:31.897Z,8.83
2019-03-03T14:53:35.776Z,5.73
2019-03-03T14:55:39.586Z,3.90
2019-03-03T14:57:43.206Z,4.93
2019-03-03T14:59:47.095Z,4.23
2019-03-03T15:01:51.002Z,4.77
2019-03-03T15:03:54.904Z,4.23
2019-03-03T15:05:58.688Z,3.73
2019-03-03T15:08:03.740Z,7.30
2019-03-03T15:10:10.805Z,4.53
2019-03-03T15:12:14.723Z,3.00
2019-03-03T15:14:18.719Z,3.77
2019-03-03T15:16:22.538Z,7.87
2019-03-03T15:18:26.139Z,3.27
2019-03-03T15:20:30.338Z,4.43
2019-03-03T15:22:34.238Z,3.47
2019-03-03T15:24:38.154Z,5.57
2019-03-03T15:26:41.692Z,6.87
2019-03-03T15:28:45.557Z,5.33
2019-03-03T15:30:49.364Z,2.97
2019-03-03T15:32:53.366Z,5.40
2019-03-03T15:34:56.998Z,7.53
2019-03-03T15:37:00.596Z,4.90
2019-03-03T15:39:06.462Z,12.27
2019-03-03T15:41:10.012Z,4.97
2019-03-03T15:43:14.328Z,5.07
2019-03-03T15:45:20.690Z,3.77
2019-03-03T15:47:24.244Z,6.23
2019-03-03T15:49:27.771Z,6.47
2019-03-03T15:51:31.686Z,4.60
2019-03-03T15:53:35.590Z,3.53
2019-03-03T15:55:39.506Z,3.00
2019-03-03T15:57:43.426Z,3.77
2019-03-03T15:59:47.317Z,3.87
2019-03-03T16:01:51.213Z,3.23
2019-03-03T16:03:55.125Z,3.30
2019-03-03T16:05:58.672Z,3.67
2019-03-03T16:08:02.624Z,3.10
2019-03-03T16:10:09.227Z,3.53
2019-03-03T16:12:13.096Z,3.43
2019-03-03T16:14:17.003Z,3.07
2019-03-03T16:16:20.557Z,3.67
2019-03-03T16:18:24.408Z,3.20
2019-03-03T16:20:28.312Z,3.33
2019-03-03T16:22:32.218Z,3.97
2019-03-03T16:24:35.842Z,3.87
2019-03-03T16:26:39.416Z,3.80
2019-03-03T16:28:43.313Z,3.47
2019-03-03T16:30:47.224Z,3.30
2019-03-03T16:32:51.121Z,3.43
2019-03-03T16:34:54.666Z,3.40
2019-03-03T16:36:58.214Z,3.33
2019-03-03T16:39:02.143Z,3.60
2019-03-03T16:41:06.090Z,8.37
2019-03-03T16:43:09.627Z,6.53
2019-03-03T16:45:15.193Z,3.63
2019-03-03T16:47:19.099Z,7.50
2019-03-03T16:49:22.982Z,7.83
2019-03-03T16:51:26.902Z,4.50
2019-03-03T16:53:30.795Z,5.30
2019-03-03T16:55:34.709Z,12.70
2019-03-03T16:57:38.615Z,6.13
2019-03-03T16:59:42.532Z,3.43
2019-03-03T17:01:46.435Z,7.93
2019-03-03T17:03:49.967Z,3.17
2019-03-03T17:05:53.524Z,5.10
2019-03-03T17:07:57.432Z,4.07
2019-03-03T17:10:01.002Z,6.03
2019-03-03T17:12:04.832Z,3.70
2019-03-03T17:14:08.711Z,3.63
2019-03-03T17:16:12.265Z,3.47
2019-03-03T17:18:15.856Z,3.30
2019-03-03T17:20:19.817Z,4.07
2019-03-03T17:22:23.743Z,6.20
2019-03-03T17:24:27.532Z,3.73
2019-03-03T17:26:31.528Z,4.87
2019-03-03T17:28:35.062Z,5.97
2019-03-03T17:30:38.942Z,5.73
2019-03-03T17:32:42.946Z,5.03
2019-03-03T17:34:46.456Z,3.93
2019-03-03T17:36:50.861Z,7.43
2019-03-03T17:38:54.428Z,8.00
2019-03-03T17:40:58.277Z,3.93
2019-03-03T17:43:03.905Z,9.57
2019-03-03T17:45:13.152Z,3.53
2019-03-03T17:47:17.033Z,5.37
2019-03-03T17:49:20.560Z,3.77
2019-03-03T17:51:24.435Z,3.90
2019-03-03T17:53:28.349Z,5.17
2019-03-03T17:55:32.244Z,8.30
2019-03-03T17:57:36.065Z,6.37
2019-03-03T17:59:39.982Z,3.43
2019-03-03T18:01:43.524Z,3.33
2019-03-03T18:03:47.363Z,3.73
2019-03-03T18:05:51.461Z,4.33
2019-03-03T18:07:55.101Z,3.33
2019-03-03T18:09:58.694Z,4.10
2019-03-03T18:12:02.585Z,3.50
2019-03-03T18:14:06.103Z,7.13
2019-03-03T18:16:10.007Z,5.10
2019-03-03T18:18:13.888Z,4.33
2019-03-03T18:20:21.476Z,4.00
2019-03-03T18:22:25.274Z,3.87
2019-03-03T18:24:28.783Z,3.60
2019-03-03T18:26:32.687Z,3.77
2019-03-03T18:28:36.617Z,3.90
2019-03-03T18:30:42.023Z,4.30
2019-03-03T18:32:45.930Z,4.43
2019-03-03T18:34:49.486Z,3.90
2019-03-03T18:36:53.282Z,4.23
2019-03-03T18:38:59.744Z,3.83
2019-03-03T18:41:03.591Z,3.70
2019-03-03T18:43:07.532Z,4.33
2019-03-03T18:45:13.354Z,3.97
2019-03-03T18:47:17.166Z,4.10
2019-03-03T18:49:21.065Z,4.43
2019-03-03T18:51:24.586Z,3.90
2019-03-03T18:53:28.127Z,5.10
2019-03-03T18:55:31.639Z,4.57
2019-03-03T18:57:35.474Z,4.67
2019-03-03T18:59:39.033Z,3.77
2019-03-03T19:01:42.967Z,4.30
2019-03-03T19:03:48.303Z,4.43
2019-03-03T19:05:55.640Z,4.30
2019-03-03T19:07:57.593Z,4.70
2019-03-03T19:10:01.456Z,4.37
2019-03-03T19:12:05.264Z,4.10
2019-03-03T19:14:09.043Z,4.37
2019-03-03T19:16:12.864Z,4.33
2019-03-03T19:18:16.808Z,4.77
2019-03-03T19:20:21.619Z,3.97
2019-03-03T19:22:25.500Z,4.63
2019-03-03T19:24:29.291Z,4.00
2019-03-03T19:26:33.215Z,4.70
2019-03-03T19:28:36.737Z,5.67
2019-03-03T19:30:40.602Z,4.27
2019-03-03T19:32:47.197Z,3.90
2019-03-03T19:34:51.094Z,5.47
2019-03-03T19:36:54.992Z,4.20
2019-03-03T19:38:58.593Z,10.57
2019-03-03T19:41:02.489Z,5.10
2019-03-03T19:43:06.499Z,4.07
2019-03-03T19:45:19.107Z,5.23
2019-03-03T19:47:23.014Z,4.80
2019-03-03T19:49:28.745Z,4.27
2019-03-03T19:51:32.160Z,6.17
2019-03-03T19:53:36.163Z,4.80
2019-03-03T19:55:39.961Z,3.97
2019-03-03T19:57:44.455Z,4.53
2019-03-03T19:59:48.381Z,4.70
2019-03-03T20:01:53.828Z,7.97
2019-03-03T20:04:00.443Z,5.63
2019-03-03T20:06:04.705Z,3.97
2019-03-03T20:08:08.575Z,4.97
2019-03-03T20:10:14.005Z,5.40
2019-03-03T20:12:17.525Z,4.60
2019-03-03T20:14:21.057Z,4.00
2019-03-03T20:16:24.953Z,5.73
2019-03-03T20:18:28.761Z,3.90
2019-03-03T20:20:32.702Z,3.77
2019-03-03T20:22:37.656Z,5.00
2019-03-03T20:24:41.312Z,5.23
2019-03-03T20:26:45.199Z,4.00
2019-03-03T20:28:50.677Z,5.23
2019-03-03T20:30:54.551Z,4.40
2019-03-03T20:32:58.452Z,4.00
2019-03-03T20:35:02.259Z,3.63
2019-03-03T20:37:06.087Z,5.23
2019-03-03T20:39:09.971Z,3.63
2019-03-03T20:41:13.872Z,3.83
2019-03-03T20:43:17.683Z,4.30
2019-03-03T20:45:26.284Z,4.87
2019-03-03T20:47:31.015Z,3.77
2019-03-03T20:49:34.911Z,3.77
2019-03-03T20:51:38.821Z,3.57
2019-03-03T20:53:42.727Z,4.40
2019-03-03T20:55:46.625Z,4.17
2019-03-03T20:57:50.540Z,4.10
2019-03-03T20:59:57.831Z,4.13
2019-03-03T21:02:01.731Z,3.30
2019-03-03T21:04:05.277Z,3.30
2019-03-03T21:06:09.139Z,3.50
2019-03-03T21:08:13.033Z,3.97
2019-03-03T21:10:18.872Z,4.13
2019-03-03T21:12:22.392Z,4.00
2019-03-03T21:14:26.284Z,3.30
2019-03-03T21:16:29.817Z,4.00
2019-03-03T21:18:33.332Z,7.30
2019-03-03T21:20:37.285Z,4.70
2019-03-03T21:22:41.202Z,3.30
2019-03-03T21:24:45.107Z,2.87
2019-03-03T21:26:48.992Z,3.33
2019-03-03T21:28:52.803Z,3.43
2019-03-03T21:30:58.955Z,3.00
2019-03-03T21:33:02.464Z,2.77
2019-03-03T21:35:09.118Z,3.10
2019-03-03T21:37:12.919Z,3.10
2019-03-03T21:39:16.747Z,3.40
2019-03-03T21:41:20.285Z,3.90
2019-03-03T21:43:23.824Z,2.87
2019-03-03T21:45:32.291Z,3.80
2019-03-03T21:47:35.798Z,4.33
2019-03-03T21:49:39.650Z,3.50
2019-03-03T21:51:43.183Z,3.03
2019-03-03T21:53:46.703Z,2.73
2019-03-03T21:55:50.248Z,3.17
2019-03-03T21:57:54.146Z,3.40
2019-03-03T21:59:58.030Z,3.30
2019-03-03T22:02:01.948Z,2.87
2019-03-03T22:04:05.852Z,2.80
2019-03-03T22:06:09.750Z,3.33
2019-03-03T22:08:13.667Z,3.53
2019-03-03T22:10:17.269Z,3.70
2019-03-03T22:12:21.178Z,3.60
2019-03-03T22:14:25.081Z,2.90
2019-03-03T22:16:29.383Z,3.10
2019-03-03T22:18:33.298Z,3.53
2019-03-03T22:20:37.194Z,2.37
2019-03-03T22:22:41.102Z,3.10
2019-03-03T22:24:44.996Z,4.90
2019-03-03T22:26:48.800Z,3.60
2019-03-03T22:28:52.344Z,2.80
2019-03-03T22:30:56.204Z,3.10
2019-03-03T22:33:00.712Z,3.87
2019-03-03T22:35:06.280Z,3.07
2019-03-03T22:37:10.181Z,2.90
2019-03-03T22:39:14.087Z,2.87
2019-03-03T22:41:17.993Z,2.50
2019-03-03T22:43:21.795Z,5.10
2019-03-03T22:45:26.708Z,3.40
2019-03-03T22:47:30.618Z,2.80
2019-03-03T22:49:35.528Z,3.03
2019-03-03T22:51:39.353Z,2.50
2019-03-03T22:53:42.896Z,2.63
2019-03-03T22:55:48.616Z,3.27
2019-03-03T22:57:52.505Z,2.30
2019-03-03T22:59:56.419Z,2.80
2019-03-03T23:01:59.913Z,2.47
2019-03-03T23:04:09.744Z,3.10
2019-03-03T23:06:28.000Z,2.70
2019-03-03T23:08:49.679Z,2.80
2019-03-03T23:11:08.233Z,2.70
2019-03-03T23:13:30.293Z,2.73
2019-03-03T23:15:48.180Z,2.47
2019-03-03T23:18:14.354Z,2.83
2019-03-03T23:20:21.735Z,2.80
2019-03-03T23:22:43.574Z,2.47
2019-03-03T23:25:02.441Z,2.40
2019-03-03T23:27:05.947Z,2.67
2019-03-03T23:29:09.875Z,3.20
2019-03-03T23:31:13.734Z,2.90
2019-03-03T23:33:18.641Z,2.60
2019-03-03T23:35:22.238Z,2.00
2019-03-03T23:37:26.084Z,2.77
2019-03-03T23:39:31.840Z,2.67
2019-03-03T23:41:35.712Z,2.80
2019-03-03T23:43:39.620Z,2.50
2019-03-03T23:45:43.420Z,2.40
2019-03-03T23:47:47.222Z,3.30
2019-03-03T23:49:50.740Z,2.60
2019-03-03T23:51:54.640Z,2.37
2019-03-03T23:53:58.428Z,2.57
2019-03-03T23:56:01.960Z,2.50
2019-03-03T23:58:06.132Z,2.87
